Time;durP1;ratioP1;P1;durP2;ratioP2;P2;SDS_P1;SDS_P2;PMS_P1;PMS_P2;Temp;Humidity;BMP_temperature;BMP_pressure;BME280_temperature;BME280_humidity;BME280_pressure;Samples;Min_cycle;Max_cycle;Signal;HPM_P1;HPM_P2
2022/04/25 00:00:03;;;;;;;45.45;26.02;;;;;;;8.94;100.00;100581.48;1760302;81;21040;-63
2022/04/25 00:02:34;;;;;;;47.90;27.55;;;;;;;8.85;100.00;100586.51;1759063;81;21003;-63
2022/04/25 00:05:01;;;;;;;46.25;25.72;;;;;;;8.86;100.00;100592.05;1760078;81;21000;-63
2022/04/25 00:07:30;;;;;;;48.95;25.37;;;;;;;8.88;100.00;100589.41;1759953;81;21027;-63
2022/04/25 00:10:01;;;;;;;53.25;27.25;;;;;;;8.83;100.00;100591.69;1760121;81;21079;-63
2022/04/25 00:12:30;;;;;;;45.17;25.12;;;;;;;8.85;100.00;100598.06;1760385;81;21067;-63
2022/04/25 00:14:57;;;;;;;42.45;24.80;;;;;;;8.80;100.00;100598.23;1759923;81;21520;-63
2022/04/25 00:17:25;;;;;;;39.27;23.35;;;;;;;8.70;100.00;100598.59;1760297;81;21054;-63
2022/04/25 00:19:53;;;;;;;39.38;23.40;;;;;;;8.68;100.00;100595.23;1759927;81;21047;-63
2022/04/25 00:22:22;;;;;;;34.55;23.02;;;;;;;8.56;100.00;100594.78;1760013;81;21070;-63
2022/04/25 00:24:51;;;;;;;38.92;23.30;;;;;;;8.52;100.00;100593.22;1760192;81;21011;-63
2022/04/25 00:27:22;;;;;;;39.03;22.87;;;;;;;8.42;100.00;100590.57;1760026;81;21070;-63
2022/04/25 00:29:49;;;;;;;39.15;24.15;;;;;;;8.33;100.00;100589.13;1760361;81;20972;-64
2022/04/25 00:32:16;;;;;;;40.45;24.57;;;;;;;8.37;100.00;100593.69;1759982;81;21035;-63
2022/04/25 00:34:45;;;;;;;42.55;24.57;;;;;;;8.37;100.00;100597.54;1760053;81;21055;-63
2022/04/25 00:37:13;;;;;;;41.45;24.15;;;;;;;8.40;100.00;100603.86;1763748;80;21044;-63
2022/04/25 00:39:42;;;;;;;44.53;25.82;;;;;;;8.40;100.00;100605.14;1770711;81;21070;-63
2022/04/25 00:42:10;;;;;;;43.10;25.68;;;;;;;8.28;100.00;100603.82;1771047;81;21078;-63
2022/04/25 00:44:37;;;;;;;37.63;23.05;;;;;;;8.28;100.00;100611.97;1770797;81;21066;-63
2022/04/25 00:47:07;;;;;;;40.08;24.10;;;;;;;8.07;100.00;100606.65;1770759;80;21043;-64
2022/04/25 00:49:37;;;;;;;44.45;25.40;;;;;;;8.13;100.00;100602.61;1770864;80;21578;-63
2022/04/25 00:52:06;;;;;;;43.70;26.75;;;;;;;8.14;100.00;100613.69;1770718;81;21027;-63
2022/04/25 00:54:34;;;;;;;45.20;26.40;;;;;;;8.16;100.00;100611.47;1771023;80;21019;-63
2022/04/25 00:57:01;;;;;;;41.83;25.80;;;;;;;8.28;100.00;100608.12;1770943;80;21534;-63
2022/04/25 00:59:29;;;;;;;46.45;24.82;;;;;;;8.38;100.00;100604.36;1739083;81;21007;-63
2022/04/25 01:01:56;;;;;;;42.95;25.20;;;;;;;8.46;100.00;100597.73;1738835;81;21007;-64
2022/04/25 01:04:24;;;;;;;41.50;25.00;;;;;;;8.52;100.00;100602.65;1770647;79;21129;-63
2022/04/25 01:06:53;;;;;;;39.53;23.98;;;;;;;8.56;100.00;100603.77;1770561;80;21043;-64
2022/04/25 01:09:21;;;;;;;43.73;24.27;;;;;;;8.54;100.00;100601.70;1770800;80;21082;-64
2022/04/25 01:11:50;;;;;;;38.92;24.18;;;;;;;8.52;100.00;100605.22;1770835;81;21047;-64
2022/04/25 01:14:23;;;;;;;41.35;23.85;;;;;;;8.49;100.00;100601.00;1770719;81;21114;-63
2022/04/25 01:16:51;;;;;;;43.05;23.98;;;;;;;8.59;100.00;100603.64;1771008;81;21035;-63
2022/04/25 01:19:18;;;;;;;39.05;22.67;;;;;;;8.54;100.00;100595.28;1771021;80;21054;-65
2022/04/25 01:22:02;;;;;;;40.92;22.45;;;;;;;8.39;100.00;100594.05;1770742;81;21074;-65
2022/04/25 01:27:18;;;;;;;36.40;21.57;;;;;;;8.56;100.00;100585.80;1770815;81;21073;-64
2022/04/25 01:29:54;;;;;;;41.80;22.52;;;;;;;8.36;100.00;100591.58;1770843;80;21042;-64
2022/04/25 01:32:24;;;;;;;39.38;22.55;;;;;;;8.40;100.00;100590.59;1771038;80;21035;-63
2022/04/25 01:34:53;;;;;;;34.25;21.40;;;;;;;8.46;100.00;100594.70;1770892;80;21054;-63
2022/04/25 01:37:21;;;;;;;34.80;21.42;;;;;;;8.24;100.00;100603.53;1770647;81;21098;-63
2022/04/25 01:39:54;;;;;;;37.45;21.70;;;;;;;8.27;100.00;100600.02;1770948;80;21062;-63
2022/04/25 01:42:22;;;;;;;36.48;21.62;;;;;;;8.21;100.00;100599.34;1770948;80;21010;-63
2022/04/25 01:44:51;;;;;;;45.50;24.15;;;;;;;8.35;100.00;100603.16;1770743;81;21035;-63
2022/04/25 01:47:20;;;;;;;47.30;23.22;;;;;;;8.45;100.00;100602.00;1770955;80;21055;-63
2022/04/25 01:49:47;;;;;;;49.88;24.65;;;;;;;8.53;100.00;100609.44;1770630;81;21090;-63
2022/04/25 01:52:30;;;;;;;59.73;24.07;;;;;;;8.47;100.00;100601.50;1770724;81;21043;-63
2022/04/25 01:54:59;;;;;;;49.98;24.20;;;;;;;8.54;100.00;100608.56;1771329;80;21019;-63
2022/04/25 01:57:26;;;;;;;57.62;24.90;;;;;;;8.49;100.00;100597.16;1770922;81;20999;-63
2022/04/25 01:59:53;;;;;;;58.52;25.17;;;;;;;8.43;100.00;100599.93;1770978;81;21078;-63
2022/04/25 02:02:26;;;;;;;54.70;24.70;;;;;;;8.32;100.00;100599.44;1770704;80;21015;-63
2022/04/25 02:04:50;;;;;;;53.40;25.60;;;;;;;8.50;100.00;100597.56;1769639;81;21023;-63
2022/04/25 02:07:19;;;;;;;51.58;25.77;;;;;;;8.54;100.00;100595.28;1770659;81;21040;-63
2022/04/25 02:09:48;;;;;;;50.50;26.42;;;;;;;8.65;100.00;100598.75;1770751;80;21085;-63
2022/04/25 02:12:16;;;;;;;51.28;26.42;;;;;;;8.76;100.00;100602.25;1770981;81;21086;-63
2022/04/25 02:14:46;;;;;;;48.60;25.17;;;;;;;8.77;100.00;100597.49;1770572;81;21062;-63
2022/04/25 02:17:14;;;;;;;51.30;26.00;;;;;;;8.71;100.00;100596.42;1770771;81;21094;-63
2022/04/25 02:19:44;;;;;;;58.75;28.00;;;;;;;8.74;100.00;100598.87;1770962;80;21515;-63
2022/04/25 02:22:12;;;;;;;58.35;28.60;;;;;;;8.77;100.00;100596.21;1770649;81;21058;-63
2022/04/25 02:24:40;;;;;;;61.65;28.73;;;;;;;8.70;100.00;100590.89;1771092;81;21047;-63
2022/04/25 02:27:10;;;;;;;61.50;26.75;;;;;;;8.72;100.00;100587.82;1770560;80;21019;-63
2022/04/25 02:29:39;;;;;;;55.50;25.27;;;;;;;8.67;100.00;100595.69;1770757;81;21086;-63
2022/04/25 02:32:12;;;;;;;54.75;24.92;;;;;;;8.63;100.00;100591.10;1770827;80;21101;-63
2022/04/25 02:34:39;;;;;;;46.68;24.37;;;;;;;8.60;100.00;100582.24;1770663;81;21019;-63
2022/04/25 02:37:06;;;;;;;49.70;25.43;;;;;;;8.57;100.00;100586.64;1770848;80;21035;-63
2022/04/25 02:39:35;;;;;;;46.50;24.95;;;;;;;8.61;100.00;100583.91;1770847;81;21125;-63
2022/04/25 02:42:04;;;;;;;47.17;24.77;;;;;;;8.65;100.00;100582.08;1770687;81;21094;-63
2022/04/25 02:44:31;;;;;;;42.20;24.32;;;;;;;8.71;100.00;100582.31;1770929;81;21047;-63
2022/04/25 02:46:59;;;;;;;46.35;24.85;;;;;;;8.79;100.00;100581.14;1770685;81;21605;-63
2022/04/25 02:49:27;;;;;;;45.10;24.72;;;;;;;8.82;100.00;100590.03;1770959;81;21559;-63
2022/04/25 02:51:56;;;;;;;52.20;25.40;;;;;;;8.79;100.00;100594.43;1770614;81;21566;-63
2022/04/25 02:54:24;;;;;;;55.33;25.12;;;;;;;8.80;100.00;100594.84;1770965;81;21520;-63
2022/04/25 02:56:53;;;;;;;44.63;23.07;;;;;;;8.79;100.00;100593.97;1770640;81;21543;-63
2022/04/25 02:59:20;;;;;;;50.90;23.45;;;;;;;8.61;100.00;100600.58;1770964;80;21094;-63
2022/04/25 03:01:48;;;;;;;51.37;24.07;;;;;;;8.70;100.00;100596.02;1770710;81;21035;-64
2022/04/25 03:04:16;;;;;;;51.18;25.25;;;;;;;8.65;100.00;100601.77;1770534;79;21090;-64
2022/04/25 03:06:45;;;;;;;50.67;23.50;;;;;;;8.61;100.00;100610.02;1770904;81;21082;-63
2022/04/25 03:09:12;;;;;;;52.27;24.37;;;;;;;8.59;100.00;100607.49;1770704;80;21054;-63
2022/04/25 03:11:41;;;;;;;55.58;25.88;;;;;;;8.65;100.00;100612.04;1770875;80;21519;-63
2022/04/25 03:14:09;;;;;;;48.65;25.08;;;;;;;8.70;100.00;100619.11;1770683;81;21035;-63
2022/04/25 03:16:38;;;;;;;49.53;26.50;;;;;;;8.81;100.00;100621.70;1770927;81;21018;-63
2022/04/25 03:19:05;;;;;;;50.20;25.75;;;;;;;8.96;100.00;100625.48;1770809;81;21050;-62
2022/04/25 03:21:34;;;;;;;50.92;25.97;;;;;;;8.88;100.00;100621.49;1770930;81;21601;-63
2022/04/25 03:24:02;;;;;;;51.80;25.95;;;;;;;9.02;100.00;100620.13;1771027;80;21035;-63
2022/04/25 03:26:31;;;;;;;53.78;26.77;;;;;;;9.12;100.00;100611.62;1770675;81;21039;-64
2022/04/25 03:28:58;;;;;;;52.73;26.42;;;;;;;9.31;100.00;100623.37;1770970;81;21082;-63
2022/04/25 03:31:27;;;;;;;48.87;26.42;;;;;;;9.37;100.00;100621.85;1770522;81;21039;-64
2022/04/25 03:33:54;;;;;;;49.53;26.82;;;;;;;9.38;100.00;100626.08;1770890;80;21525;-63
2022/04/25 03:36:21;;;;;;;55.58;26.35;;;;;;;9.39;100.00;100630.34;1770694;80;21479;-64
2022/04/25 03:38:50;;;;;;;49.33;26.12;;;;;;;9.46;100.00;100619.38;1774574;80;21085;-63
2022/04/25 03:41:18;;;;;;;48.17;26.12;;;;;;;9.62;100.00;100628.63;1777073;81;21077;-63
2022/04/25 03:43:46;;;;;;;53.08;26.42;;;;;;;9.68;100.00;100621.14;1776707;81;21035;-64
2022/04/25 03:46:15;;;;;;;51.33;25.82;;;;;;;9.64;100.00;100616.56;1777067;80;21003;-64
2022/04/25 03:48:44;;;;;;;52.30;26.65;;;;;;;9.56;100.00;100619.87;1777009;79;21055;-64
2022/04/25 03:51:11;;;;;;;46.15;25.35;;;;;;;9.56;100.00;100619.87;1776860;81;21019;-64
2022/04/25 03:53:41;;;;;;;48.83;26.02;;;;;;;9.70;100.00;100616.33;1776984;81;21074;-64
2022/04/25 03:58:55;;;;;;;42.08;24.15;;;;;;;10.00;100.00;100618.59;1777293;79;21668;-65
2022/04/25 04:01:22;;;;;;;46.48;25.35;;;;;;;10.04;100.00;100615.00;1776845;80;21074;-64
2022/04/25 04:03:50;;;;;;;48.00;25.23;;;;;;;10.18;100.00;100611.88;1776988;79;21636;-64
2022/04/25 04:06:17;;;;;;;50.05;26.50;;;;;;;10.13;100.00;100612.50;1776803;81;21048;-64
2022/04/25 04:08:45;;;;;;;50.95;26.02;;;;;;;10.17;100.00;100607.63;1776791;79;21043;-64
2022/04/25 04:11:12;;;;;;;55.03;28.77;;;;;;;10.28;100.00;100620.89;1777080;79;21073;-64
2022/04/25 04:13:40;;;;;;;55.15;26.87;;;;;;;10.27;100.00;100619.66;1776816;79;21031;-64
2022/04/25 04:16:08;;;;;;;54.40;27.05;;;;;;;10.36;100.00;100620.16;1777012;79;21019;-63
2022/04/25 04:18:36;;;;;;;55.60;28.02;;;;;;;10.56;100.00;100619.33;1777038;79;21541;-64
2022/04/25 04:21:03;;;;;;;51.30;26.90;;;;;;;10.71;100.00;100621.70;1776835;81;21047;-63
2022/04/25 04:23:31;;;;;;;56.20;27.35;;;;;;;10.77;100.00;100620.14;1777019;81;21062;-64
2022/04/25 04:25:59;;;;;;;47.75;26.33;;;;;;;10.87;100.00;100619.30;1776704;81;21610;-64
2022/04/25 04:28:28;;;;;;;51.25;27.02;;;;;;;10.95;100.00;100615.94;1776902;81;20999;-64
2022/04/25 04:30:55;;;;;;;52.17;27.10;;;;;;;10.98;100.00;100617.53;1776727;79;21082;-64
2022/04/25 04:33:23;;;;;;;51.30;27.45;;;;;;;11.02;100.00;100621.64;1776717;81;21542;-64
2022/04/25 04:38:36;;;;;;;46.92;26.77;;;;;;;11.04;100.00;100617.27;1773914;80;21577;-64
2022/04/25 04:41:03;;;;;;;44.83;25.55;;;;;;;10.69;100.00;100622.67;1770818;80;21050;-66
2022/04/25 04:43:32;;;;;;;43.80;25.90;;;;;;;11.13;100.00;100619.44;1770850;80;21039;-63
2022/04/25 04:45:59;;;;;;;41.28;25.48;;;;;;;11.25;100.00;100612.05;1770936;81;21074;-64
2022/04/25 04:48:28;;;;;;;43.65;25.50;;;;;;;11.31;100.00;100613.89;1770677;81;21078;-63
2022/04/25 04:50:58;;;;;;;38.95;23.95;;;;;;;11.34;100.00;100611.64;1770589;81;21554;-64
2022/04/25 04:53:26;;;;;;;37.53;24.63;;;;;;;11.52;100.00;100608.22;1771029;80;21082;-64
2022/04/25 04:55:54;;;;;;;35.68;23.42;;;;;;;11.66;100.00;100608.88;1770661;80;21038;-64
2022/04/25 04:58:21;;;;;;;38.83;24.57;;;;;;;11.80;100.00;100610.34;1770982;81;21007;-64
2022/04/25 05:00:48;;;;;;;36.83;23.95;;;;;;;11.93;100.00;100611.08;1770657;80;21059;-65
2022/04/25 05:03:17;;;;;;;38.45;24.35;;;;;;;12.08;100.00;100621.09;1770656;80;21123;-65
2022/04/25 05:05:48;;;;;;;33.83;23.10;;;;;;;12.24;100.00;100618.14;1771066;81;20987;-66
2022/04/25 05:08:16;;;;;;;38.55;24.15;;;;;;;12.38;100.00;100618.76;1770708;80;21047;-65
2022/04/25 05:10:43;;;;;;;36.75;23.80;;;;;;;12.51;100.00;100621.12;1770666;80;21035;-65
2022/04/25 05:13:11;;;;;;;33.63;22.45;;;;;;;12.67;100.00;100619.03;1770760;80;21039;-65
2022/04/25 05:15:38;;;;;;;34.80;23.38;;;;;;;12.82;100.00;100615.21;1770654;80;21042;-65
2022/04/25 05:18:06;;;;;;;36.20;23.75;;;;;;;13.02;100.00;100618.52;1771037;80;21050;-65
2022/04/25 05:20:34;;;;;;;34.67;22.22;;;;;;;13.18;100.00;100621.13;1770695;80;21066;-65
2022/04/25 05:23:04;;;;;;;29.77;21.35;;;;;;;13.30;100.00;100619.22;1770862;80;21535;-64
2022/04/25 05:25:35;;;;;;;33.78;21.40;;;;;;;13.42;100.00;100618.98;1770754;80;21062;-65
2022/04/25 05:28:03;;;;;;;27.77;19.85;;;;;;;13.56;100.00;100615.66;1770662;81;21094;-63
2022/04/25 05:30:30;;;;;;;27.98;18.85;;;;;;;13.72;100.00;100620.35;1770866;81;21039;-64
2022/04/25 05:33:02;;;;;;;25.57;18.12;;;;;;;13.90;100.00;100624.14;1770693;80;21101;-64
2022/04/25 05:35:30;;;;;;;26.90;17.75;;;;;;;14.06;100.00;100626.23;1770870;81;21065;-64
2022/04/25 05:37:59;;;;;;;27.30;17.45;;;;;;;14.22;100.00;100621.84;1770756;81;21014;-64
2022/04/25 05:40:28;;;;;;;25.68;17.35;;;;;;;14.39;100.00;100620.86;1771005;80;21522;-65
2022/04/25 05:42:58;;;;;;;24.77;17.15;;;;;;;14.55;100.00;100616.92;1770957;81;21042;-64
2022/04/25 05:45:26;;;;;;;20.88;14.28;;;;;;;14.71;100.00;100622.53;1771053;81;21014;-64
2022/04/25 05:47:56;;;;;;;17.52;13.65;;;;;;;14.94;100.00;100615.52;1770757;80;21531;-64
2022/04/25 05:53:14;;;;;;;17.75;11.70;;;;;;;15.37;100.00;100619.34;1770637;80;21078;-63
2022/04/25 05:55:43;;;;;;;15.13;11.18;;;;;;;15.62;100.00;100619.92;1770806;80;20992;-63
2022/04/25 05:58:11;;;;;;;15.28;10.28;;;;;;;15.74;100.00;100616.22;1770616;80;21771;-63
2022/04/25 06:00:39;;;;;;;12.80;9.40;;;;;;;15.84;100.00;100618.59;1770548;80;21486;-64
2022/04/25 06:03:08;;;;;;;12.40;7.58;;;;;;;16.03;100.00;100618.22;1770864;80;21090;-64
2022/04/25 06:05:37;;;;;;;9.38;7.20;;;;;;;16.31;100.00;100615.95;1770730;81;20993;-64
2022/04/25 06:08:08;;;;;;;8.68;5.40;;;;;;;16.58;100.00;100624.13;1770650;80;21030;-64
2022/04/25 06:10:35;;;;;;;7.75;6.10;;;;;;;16.72;100.00;100618.82;1770940;80;21007;-64
2022/04/25 06:13:04;;;;;;;9.93;6.20;;;;;;;16.74;100.00;100623.45;1770722;80;21042;-63
2022/04/25 06:15:32;;;;;;;8.73;6.47;;;;;;;16.93;100.00;100620.47;1770710;80;21058;-63
2022/04/25 06:18:01;;;;;;;10.93;6.62;;;;;;;17.13;100.00;100626.04;1770984;80;21558;-63
2022/04/25 06:20:30;;;;;;;7.58;5.70;;;;;;;17.14;100.00;100627.23;1739518;81;21027;-65
2022/04/25 06:23:02;;;;;;;7.78;5.22;;;;;;;17.38;100.00;100624.69;1770575;80;21086;-64
2022/04/25 06:25:31;;;;;;;6.80;5.30;;;;;;;17.51;100.00;100624.64;1770991;80;21019;-64
2022/04/25 06:28:00;;;;;;;6.40;5.03;;;;;;;17.65;100.00;100619.75;1770966;81;21089;-63
2022/04/25 06:30:30;;;;;;;6.05;4.03;;;;;;;17.76;99.75;100619.81;1771053;80;21003;-64
2022/04/25 06:32:59;;;;;;;5.58;4.33;;;;;;;17.95;96.92;100625.02;1770735;81;21058;-64
2022/04/25 06:35:30;;;;;;;6.22;4.35;;;;;;;18.13;96.52;100623.66;1770009;80;21079;-64
2022/04/25 06:37:57;;;;;;;8.75;5.15;;;;;;;18.25;93.98;100623.67;1770053;80;21114;-64
2022/04/25 06:40:26;;;;;;;6.12;4.08;;;;;;;18.27;91.92;100620.48;1769622;81;21094;-65
2022/04/25 06:42:56;;;;;;;4.90;3.90;;;;;;;18.29;88.67;100623.80;1769749;80;21073;-64
2022/04/25 06:45:25;;;;;;;7.22;4.50;;;;;;;18.45;89.56;100616.52;1770058;81;21550;-64
2022/04/25 06:47:54;;;;;;;6.75;4.22;;;;;;;18.49;87.49;100627.52;1769440;80;22127;-64
2022/04/25 06:50:21;;;;;;;6.80;4.60;;;;;;;18.60;86.52;100629.69;1770087;80;21015;-64
2022/04/25 06:52:50;;;;;;;4.62;4.10;;;;;;;18.76;87.05;100631.13;1769943;80;21062;-64
2022/04/25 06:55:19;;;;;;;6.22;4.25;;;;;;;18.79;84.07;100626.52;1769863;80;21101;-64
2022/04/25 06:57:48;;;;;;;5.70;4.53;;;;;;;18.88;83.78;100634.13;1769937;81;21119;-64
2022/04/25 07:00:17;;;;;;;6.78;4.28;;;;;;;19.05;81.15;100626.77;1770441;81;21063;-64
2022/04/25 07:02:45;;;;;;;6.25;4.50;;;;;;;19.10;80.17;100622.86;1770817;79;21558;-64
2022/04/25 07:05:14;;;;;;;5.45;4.25;;;;;;;19.22;81.46;100617.13;1770870;81;21034;-64
2022/04/25 07:07:43;;;;;;;5.75;4.58;;;;;;;19.23;80.60;100620.59;1770721;80;21546;-64
2022/04/25 07:10:11;;;;;;;7.53;4.45;;;;;;;19.38;81.59;100624.59;1770947;80;21046;-64
2022/04/25 07:12:40;;;;;;;7.08;4.60;;;;;;;19.44;81.58;100624.58;1770772;81;21003;-64
2022/04/25 07:15:09;;;;;;;5.35;4.47;;;;;;;19.61;80.50;100622.77;1767686;81;21064;-63
2022/04/25 07:17:38;;;;;;;7.45;4.30;;;;;;;19.41;81.14;100619.95;1764837;81;20953;-63
2022/04/25 07:20:07;;;;;;;4.15;3.75;;;;;;;19.53;81.07;100625.17;1767684;79;21041;-65
2022/04/25 07:30:53;;;;;;;8.90;4.20;;;;;;;20.36;76.58;100622.35;1787032;80;21063;-63
2022/04/25 07:33:20;;;;;;;5.30;4.08;;;;;;;20.31;77.11;100620.59;1787009;80;21056;-63
2022/04/25 07:35:49;;;;;;;6.40;4.60;;;;;;;20.46;73.65;100619.31;1787244;80;21052;-64
2022/04/25 07:38:19;;;;;;;9.48;4.70;;;;;;;20.65;76.96;100627.77;1787132;80;21076;-64
2022/04/25 07:40:46;;;;;;;6.33;4.50;;;;;;;20.85;77.34;100619.53;1803801;79;21011;-64
2022/04/25 07:43:15;;;;;;;7.72;4.75;;;;;;;20.88;75.85;100612.71;1804234;78;21033;-64
2022/04/25 07:45:43;;;;;;;7.65;4.67;;;;;;;20.90;74.75;100616.02;1763265;81;21061;-64
2022/04/25 07:48:11;;;;;;;10.63;4.87;;;;;;;20.93;75.81;100607.10;1763542;80;21043;-64
2022/04/25 07:50:39;;;;;;;8.10;5.12;;;;;;;21.07;77.55;100612.46;1763194;80;21050;-64
2022/04/25 07:53:07;;;;;;;8.33;4.90;;;;;;;21.10;77.79;100602.52;1763273;80;21562;-63
2022/04/25 07:55:36;;;;;;;8.08;5.03;;;;;;;21.10;78.58;100599.91;1763084;81;21065;-63
2022/04/25 07:58:03;;;;;;;11.80;5.25;;;;;;;21.29;76.74;100610.08;1763250;80;21044;-63
2022/04/25 08:00:31;;;;;;;13.62;5.65;;;;;;;21.47;76.10;100606.36;1763368;80;20998;-64
2022/04/25 08:02:59;;;;;;;8.75;5.30;;;;;;;21.46;77.12;100608.16;1763205;81;21098;-64
2022/04/25 08:05:26;;;;;;;12.30;5.33;;;;;;;21.36;78.40;100608.10;1763238;81;21077;-63
2022/04/25 08:07:53;;;;;;;14.85;5.33;;;;;;;21.31;79.63;100600.30;1763477;80;21050;-63
2022/04/25 08:10:21;;;;;;;11.08;5.30;;;;;;;21.47;76.54;100595.42;1763505;80;21506;-63
2022/04/25 08:18:22;;;;;;;11.90;5.35;;;;;;;21.52;78.69;100588.45;1763527;80;21087;-63
2022/04/25 08:20:52;;;;;;;10.05;4.90;;;;;;;21.51;77.30;100586.78;1763236;81;21035;-63
2022/04/25 08:23:19;;;;;;;8.40;4.70;;;;;;;21.58;78.07;100580.05;1763790;80;21041;-63
2022/04/25 08:25:48;;;;;;;9.83;4.85;;;;;;;21.60;77.30;100576.31;1763411;81;21038;-63
2022/04/25 08:28:16;;;;;;;10.38;5.50;;;;;;;21.62;76.89;100576.19;1763246;80;21093;-63
2022/04/25 08:30:44;;;;;;;9.45;4.85;;;;;;;21.56;77.25;100575.43;1763746;80;21491;-63
2022/04/25 08:33:12;;;;;;;10.05;5.30;;;;;;;21.67;77.16;100573.15;1763219;80;21125;-63
2022/04/25 08:35:40;;;;;;;8.00;5.10;;;;;;;21.69;75.75;100564.66;1763353;81;21110;-63
2022/04/25 08:38:09;;;;;;;7.78;4.67;;;;;;;21.54;76.87;100564.27;1763243;80;21120;-63
2022/04/25 08:40:38;;;;;;;7.85;4.95;;;;;;;21.65;78.08;100567.22;1740325;81;21000;-63
2022/04/25 08:43:09;;;;;;;9.13;5.20;;;;;;;21.80;75.96;100561.91;1734622;80;21035;-63
2022/04/25 08:45:38;;;;;;;8.50;4.90;;;;;;;22.14;77.20;100559.66;1734559;81;21086;-63
2022/04/25 08:48:08;;;;;;;9.10;5.12;;;;;;;22.18;76.55;100554.94;1734518;81;21086;-64
2022/04/25 08:50:37;;;;;;;12.05;4.90;;;;;;;22.39;76.21;100558.23;1734343;80;21047;-64
2022/04/25 08:53:07;;;;;;;8.30;4.50;;;;;;;22.66;74.38;100561.03;1734636;80;21043;-63
2022/04/25 08:55:35;;;;;;;8.98;4.50;;;;;;;22.51;75.21;100558.06;1734479;81;21059;-64
2022/04/25 08:58:04;;;;;;;10.10;5.20;;;;;;;22.46;72.83;100557.16;1734430;83;21578;-64
2022/04/25 09:00:31;;;;;;;9.23;4.75;;;;;;;22.40;71.54;100551.18;1733730;83;21077;-64
2022/04/25 09:03:01;;;;;;;8.28;4.95;;;;;;;22.44;73.45;100551.23;1734367;83;21629;-64
2022/04/25 09:05:29;;;;;;;8.78;4.60;;;;;;;22.54;71.51;100544.16;1734300;83;21070;-64
2022/04/25 09:07:59;;;;;;;10.43;4.60;;;;;;;22.37;70.57;100542.30;1734573;82;21034;-64
2022/04/25 09:10:29;;;;;;;6.37;4.40;;;;;;;22.38;72.35;100537.38;1734346;83;21097;-63
2022/04/25 09:12:58;;;;;;;7.03;4.25;;;;;;;22.55;72.07;100535.33;1734493;81;21058;-63
2022/04/25 09:15:26;;;;;;;8.50;4.67;;;;;;;22.67;72.10;100531.19;1734337;83;21031;-63
2022/04/25 09:17:55;;;;;;;6.58;4.15;;;;;;;22.52;70.79;100524.29;1712058;83;21043;-63
2022/04/25 09:20:25;;;;;;;6.60;4.17;;;;;;;22.59;70.71;100522.75;1735049;83;21086;-63
2022/04/25 09:22:54;;;;;;;8.33;4.10;;;;;;;22.78;69.22;100521.81;1734303;81;21082;-63
2022/04/25 09:25:21;;;;;;;6.10;4.00;;;;;;;22.74;68.36;100514.72;1734520;83;21015;-63
2022/04/25 09:28:11;;;;;;;5.55;4.00;;;;;;;22.95;67.54;100510.53;1734195;80;21550;-63
2022/04/25 09:30:38;;;;;;;5.95;3.58;;;;;;;23.15;67.09;100507.30;1734656;83;21027;-63
2022/04/25 09:33:23;;;;;;;4.40;3.37;;;;;;;23.40;65.17;100508.36;1734461;80;21121;-63
2022/04/25 09:35:54;;;;;;;5.10;3.25;;;;;;;23.16;61.89;100506.83;1734604;83;21038;-63
2022/04/25 09:38:34;;;;;;;4.87;3.12;;;;;;;23.03;59.03;100499.30;1736248;80;21510;-63
2022/04/25 09:41:07;;;;;;;6.05;3.25;;;;;;;23.25;62.14;100497.22;1763646;80;21565;-64
2022/04/25 09:43:41;;;;;;;5.85;3.20;;;;;;;23.65;62.03;100505.93;1768941;80;21549;-64
2022/04/25 09:46:13;;;;;;;5.40;3.42;;;;;;;23.91;60.94;100489.39;1768784;80;21050;-64
2022/04/25 09:49:02;;;;;;;5.60;3.20;;;;;;;24.12;61.24;100495.09;1769012;80;21010;-64
2022/04/25 09:51:30;;;;;;;5.40;3.37;;;;;;;24.18;60.63;100488.37;1768148;81;21065;-64
2022/04/25 09:54:01;;;;;;;4.22;3.15;;;;;;;24.47;59.97;100485.88;1769092;80;21101;-64
2022/04/25 09:56:30;;;;;;;3.80;2.92;;;;;;;24.62;60.54;100487.45;1768898;80;21061;-63
2022/04/25 09:59:08;;;;;;;5.87;2.85;;;;;;;24.99;58.12;100490.98;1769007;81;21010;-64
2022/04/25 10:01:39;;;;;;;6.87;3.10;;;;;;;25.05;55.83;100486.89;1768742;81;21030;-63
2022/04/25 10:04:31;;;;;;;6.33;3.40;;;;;;;24.76;55.81;100485.02;1768896;81;21082;-64
2022/04/25 10:07:05;;;;;;;5.42;2.95;;;;;;;24.40;55.75;100469.91;1768749;80;21554;-64
2022/04/25 10:09:35;;;;;;;6.72;3.22;;;;;;;24.08;57.76;100470.08;1769059;81;21062;-64
2022/04/25 10:12:06;;;;;;;4.17;3.10;;;;;;;24.33;57.00;100474.14;1768946;80;21069;-64
2022/04/25 10:14:33;;;;;;;5.75;2.95;;;;;;;24.33;57.00;100474.14;1769159;80;21053;-64
2022/04/25 10:17:04;;;;;;;5.58;3.30;;;;;;;24.06;57.14;100477.30;1768835;80;21770;-64
2022/04/25 10:19:32;;;;;;;5.12;3.17;;;;;;;23.99;58.39;100477.61;1768962;80;21015;-64
2022/04/25 10:22:00;;;;;;;4.12;3.10;;;;;;;24.18;57.62;100474.73;1768927;80;21011;-64
2022/04/25 10:24:27;;;;;;;3.72;3.00;;;;;;;24.64;56.85;100473.64;1768856;81;21069;-64
2022/04/25 10:26:57;;;;;;;5.95;3.10;;;;;;;24.64;56.85;100473.64;1769122;80;21038;-64
2022/04/25 10:29:31;;;;;;;5.97;3.30;;;;;;;24.85;57.33;100471.37;1768997;80;21010;-64
2022/04/25 10:32:01;;;;;;;6.83;3.00;;;;;;;26.56;54.93;100464.25;1768920;80;21045;-64
2022/04/25 10:34:56;;;;;;;3.60;3.00;;;;;;;25.47;56.23;100466.20;1768923;80;21057;-64
2022/04/25 10:37:31;;;;;;;5.03;2.83;;;;;;;25.13;55.84;100464.02;1768821;80;21042;-64
2022/04/25 10:40:03;;;;;;;3.10;2.70;;;;;;;25.28;54.91;100461.56;1767279;81;21042;-65
2022/04/25 10:45:17;;;;;;;5.30;2.90;;;;;;;25.25;54.64;100463.73;1763483;81;21058;-64
2022/04/25 10:47:58;;;;;;;3.33;2.80;;;;;;;25.10;54.61;100458.23;1763191;81;21097;-64
2022/04/25 10:50:26;;;;;;;4.20;3.10;;;;;;;25.18;54.35;100452.50;1763443;80;21510;-65
2022/04/25 10:52:55;;;;;;;7.97;2.98;;;;;;;25.17;55.28;100450.02;1763539;80;21066;-65
2022/04/25 10:55:33;;;;;;;4.28;3.10;;;;;;;25.04;55.47;100454.94;1763549;80;21047;-65
2022/04/25 10:58:08;;;;;;;5.42;3.22;;;;;;;25.08;54.71;100454.94;1763235;80;21046;-65
2022/04/25 11:00:45;;;;;;;5.90;3.05;;;;;;;25.18;54.30;100445.92;1763724;80;21494;-65
2022/04/25 11:03:23;;;;;;;4.50;3.10;;;;;;;24.68;54.09;100436.30;1763325;80;21011;-65
2022/04/25 11:06:02;;;;;;;8.70;3.20;;;;;;;24.87;54.96;100435.67;1763430;80;20983;-64
2022/04/25 11:08:38;;;;;;;5.37;3.00;;;;;;;25.13;55.13;100434.22;1763225;80;21003;-64
2022/04/25 11:11:18;;;;;;;4.33;2.83;;;;;;;25.08;55.14;100429.45;1763591;81;21451;-64
2022/04/25 11:14:01;;;;;;;6.42;3.20;;;;;;;25.06;54.97;100435.84;1763354;81;21089;-64
2022/04/25 11:16:28;;;;;;;4.25;3.05;;;;;;;24.56;55.65;100428.38;1763575;80;21058;-64
2022/04/25 11:19:21;;;;;;;5.17;2.95;;;;;;;24.39;56.50;100430.94;1763415;80;21034;-64
2022/04/25 11:21:55;;;;;;;4.67;3.00;;;;;;;24.13;53.93;100424.42;1763533;80;21010;-64
2022/04/25 11:24:38;;;;;;;6.42;2.87;;;;;;;24.49;55.35;100423.38;1763424;80;21049;-64
2022/04/25 11:27:12;;;;;;;5.53;2.90;;;;;;;25.10;54.07;100422.20;1763618;80;21046;-65
2022/04/25 11:29:47;;;;;;;5.33;2.77;;;;;;;25.10;54.07;100422.20;1763513;81;21042;-65
2022/04/25 11:32:32;;;;;;;3.10;2.58;;;;;;;25.50;53.45;100415.27;1763498;80;21010;-65
2022/04/25 11:35:03;;;;;;;4.20;2.55;;;;;;;25.71;54.61;100412.12;1763152;81;21101;-65
2022/04/25 11:37:33;;;;;;;4.45;2.83;;;;;;;25.89;51.99;100417.66;1763578;81;21525;-65
2022/04/25 11:40:06;;;;;;;6.85;2.77;;;;;;;25.68;49.57;100412.94;1763337;81;21038;-64
2022/04/25 11:42:36;;;;;;;5.47;3.00;;;;;;;25.73;51.93;100415.41;1763534;81;21578;-64
2022/04/25 11:45:06;;;;;;;5.17;2.55;;;;;;;25.87;53.01;100414.36;1763594;80;21050;-64
2022/04/25 11:47:35;;;;;;;4.78;2.42;;;;;;;25.73;49.94;100406.66;1763409;81;21526;-64
2022/04/25 11:50:11;;;;;;;4.85;2.45;;;;;;;25.56;51.44;100404.56;1763293;81;21039;-64
2022/04/25 11:52:48;;;;;;;4.67;2.70;;;;;;;25.81;51.80;100409.27;1758668;80;21058;-65